createdAt,value
2019-02-26T00:01:36.285Z,52.04
2019-02-26T00:05:47.841Z,52.40
2019-02-26T00:09:55.725Z,51.84
2019-02-26T00:14:03.873Z,51.45
2019-02-26T00:18:14.026Z,50.29
2019-02-26T00:22:22.246Z,51.06
2019-02-26T00:26:34.113Z,51.01
2019-02-26T00:30:42.481Z,49.71
2019-02-26T00:34:53.080Z,49.40
2019-02-26T00:39:02.910Z,50.30
2019-02-26T00:43:11.765Z,50.34
2019-02-26T00:47:19.553Z,50.01
2019-02-26T00:51:27.661Z,50.44
2019-02-26T00:55:37.362Z,50.61
2019-02-26T00:59:46.412Z,50.40
2019-02-26T01:03:55.397Z,49.59
2019-02-26T01:08:02.833Z,50.08
2019-02-26T01:12:13.219Z,49.80
2019-02-26T01:16:20.763Z,49.31
2019-02-26T01:20:30.234Z,49.94
2019-02-26T01:24:38.137Z,50.46
2019-02-26T01:28:48.280Z,50.28
2019-02-26T01:32:57.600Z,50.01
2019-02-26T01:37:05.960Z,50.62
2019-02-26T01:41:15.574Z,50.23
2019-02-26T01:45:25.020Z,49.87
2019-02-26T01:49:33.583Z,50.11
2019-02-26T01:53:42.327Z,50.29
2019-02-26T01:57:51.065Z,50.33
2019-02-26T02:01:59.372Z,50.36
2019-02-26T02:06:10.645Z,50.23
2019-02-26T02:10:17.346Z,50.34
2019-02-26T02:14:25.066Z,50.29
2019-02-26T02:18:32.668Z,49.78
2019-02-26T02:22:42.183Z,50.42
2019-02-26T02:26:52.961Z,50.43
2019-02-26T02:31:00.272Z,51.34
2019-02-26T02:35:10.109Z,50.85
2019-02-26T02:39:20.786Z,49.33
2019-02-26T02:43:28.025Z,50.32
2019-02-26T02:47:38.698Z,49.90
2019-02-26T02:51:46.400Z,50.59
2019-02-26T02:55:54.222Z,50.13
2019-02-26T03:00:02.964Z,50.19
2019-02-26T03:04:14.717Z,50.98
2019-02-26T03:08:22.627Z,50.92
2019-02-26T03:12:30.775Z,50.85
2019-02-26T03:16:41.945Z,51.58
2019-02-26T03:20:51.228Z,52.40
2019-02-26T03:24:59.601Z,52.54
2019-02-26T03:29:09.089Z,52.36
2019-02-26T03:33:16.707Z,52.16
2019-02-26T03:37:25.816Z,52.22
2019-02-26T03:41:33.761Z,51.80
2019-02-26T03:45:41.342Z,52.40
2019-02-26T03:49:50.091Z,52.37
2019-02-26T03:53:57.699Z,52.29
2019-02-26T03:58:06.104Z,52.09
2019-02-26T04:02:15.325Z,52.28
2019-02-26T04:06:23.877Z,51.83
2019-02-26T04:10:31.591Z,51.20
2019-02-26T04:14:39.717Z,50.75
2019-02-26T04:18:49.086Z,52.11
2019-02-26T04:22:57.294Z,51.45
2019-02-26T04:27:47.267Z,51.01
2019-02-26T04:32:43.565Z,52.21
2019-02-26T04:37:38.521Z,52.33
2019-02-26T04:42:11.944Z,52.92
2019-02-26T04:46:42.386Z,52.93
2019-02-26T04:50:51.815Z,54.02
2019-02-26T04:55:00.379Z,53.32
2019-02-26T04:59:09.818Z,53.94
2019-02-26T05:03:20.079Z,55.04
2019-02-26T05:07:27.883Z,54.83
2019-02-26T05:11:39.872Z,54.85
2019-02-26T05:15:45.762Z,54.63
2019-02-26T05:19:53.774Z,55.29
2019-02-26T05:24:03.010Z,55.40
2019-02-26T05:28:12.537Z,55.81
2019-02-26T05:32:21.855Z,55.65
2019-02-26T05:36:31.746Z,55.28
2019-02-26T05:40:42.757Z,55.94
2019-02-26T05:44:53.758Z,55.22
2019-02-26T05:49:00.639Z,53.87
2019-02-26T05:53:11.433Z,54.10
2019-02-26T05:57:29.164Z,54.59
2019-02-26T06:01:28.088Z,53.19
2019-02-26T06:05:41.134Z,52.19
2019-02-26T06:09:48.007Z,51.81
2019-02-26T06:13:58.317Z,51.49
2019-02-26T06:18:05.783Z,50.22
2019-02-26T06:22:16.956Z,49.63
2019-02-26T06:26:28.166Z,49.24
2019-02-26T06:30:33.424Z,49.85
2019-02-26T06:34:41.240Z,48.57
2019-02-26T06:38:49.760Z,52.29
2019-02-26T06:42:58.915Z,46.13
2019-02-26T06:47:07.294Z,45.44
2019-02-26T06:51:16.579Z,46.08
2019-02-26T06:55:24.748Z,47.42
2019-02-26T06:59:34.941Z,45.06
2019-02-26T07:03:42.715Z,44.67
2019-02-26T07:07:54.040Z,44.76
2019-02-26T07:12:01.808Z,44.89
2019-02-26T07:16:10.094Z,44.93
2019-02-26T07:20:17.746Z,44.42
2019-02-26T07:24:27.186Z,44.03
2019-02-26T07:28:39.187Z,43.10
2019-02-26T07:32:48.484Z,41.43
2019-02-26T07:36:56.429Z,41.48
2019-02-26T07:41:06.163Z,40.89
2019-02-26T07:45:19.685Z,40.54
2019-02-26T07:49:25.855Z,40.25
2019-02-26T07:53:34.186Z,39.93
2019-02-26T07:57:43.623Z,40.68
2019-02-26T08:01:51.504Z,39.71
2019-02-26T08:06:03.624Z,40.30
2019-02-26T08:10:14.457Z,41.93
2019-02-26T08:14:23.370Z,40.93
2019-02-26T08:18:32.249Z,39.70
2019-02-26T08:22:39.976Z,40.46
2019-02-26T08:26:49.683Z,39.73
2019-02-26T08:30:57.534Z,38.59
2019-02-26T08:35:05.745Z,40.98
2019-02-26T08:39:15.730Z,41.48
2019-02-26T08:43:23.630Z,42.18
2019-02-26T08:47:31.677Z,41.46
2019-02-26T08:51:39.875Z,41.78
2019-02-26T08:55:47.764Z,41.54
2019-02-26T08:59:55.520Z,41.56
2019-02-26T09:04:03.539Z,41.59
2019-02-26T09:08:13.343Z,41.35
2019-02-26T09:12:22.416Z,40.42
2019-02-26T09:16:32.789Z,41.07
2019-02-26T09:20:42.526Z,40.77
2019-02-26T09:24:52.045Z,40.88
2019-02-26T09:29:00.284Z,40.33
2019-02-26T09:33:10.857Z,40.68
2019-02-26T09:37:18.253Z,40.52
2019-02-26T09:41:26.488Z,39.81
2019-02-26T09:45:34.820Z,39.72
2019-02-26T09:49:42.519Z,39.98
2019-02-26T09:53:53.867Z,39.83
2019-02-26T09:58:03.558Z,39.84
2019-02-26T10:02:11.317Z,40.15
2019-02-26T10:06:21.607Z,39.54
2019-02-26T10:10:31.184Z,39.25
2019-02-26T10:14:38.901Z,38.98
2019-02-26T10:18:47.874Z,39.69
2019-02-26T10:23:00.000Z,38.63
2019-02-26T10:27:08.708Z,37.91
2019-02-26T10:31:16.064Z,38.59
2019-02-26T10:35:32.454Z,38.86
2019-02-26T10:39:33.334Z,38.97
2019-02-26T10:43:41.592Z,38.61
2019-02-26T10:47:51.337Z,38.96
2019-02-26T10:52:00.352Z,37.84
2019-02-26T10:56:08.595Z,38.25
2019-02-26T11:00:19.743Z,37.45
2019-02-26T11:04:34.647Z,36.91
2019-02-26T11:08:38.759Z,36.56
2019-02-26T11:12:48.233Z,36.60
2019-02-26T11:16:56.544Z,37.37
2019-02-26T11:21:04.855Z,36.51
2019-02-26T11:25:13.355Z,36.58
2019-02-26T11:29:22.738Z,36.57
2019-02-26T11:33:30.671Z,35.80
2019-02-26T11:37:42.242Z,35.39
2019-02-26T11:41:53.771Z,37.02
2019-02-26T11:46:01.558Z,37.52
2019-02-26T11:50:11.865Z,38.59
2019-02-26T11:54:19.618Z,38.98
2019-02-26T11:58:27.340Z,38.71
2019-02-26T12:02:37.070Z,39.29
2019-02-26T12:06:45.336Z,40.08
2019-02-26T12:10:57.659Z,39.03
2019-02-26T12:15:04.420Z,37.79
2019-02-26T12:19:12.601Z,37.57
2019-02-26T12:23:22.755Z,38.07
2019-02-26T12:27:30.276Z,38.11
2019-02-26T12:31:39.042Z,39.28
2019-02-26T12:35:46.833Z,39.19
2019-02-26T12:39:55.542Z,38.17
2019-02-26T12:44:10.662Z,38.73
2019-02-26T12:48:16.256Z,39.30
2019-02-26T12:52:25.117Z,39.71
2019-02-26T12:56:36.760Z,40.08
2019-02-26T13:00:43.088Z,39.60
2019-02-26T13:04:53.378Z,40.20
2019-02-26T13:09:00.561Z,40.68
2019-02-26T13:13:10.373Z,41.77
2019-02-26T13:17:21.005Z,41.77
2019-02-26T13:21:28.197Z,41.46
2019-02-26T13:25:36.354Z,42.96
2019-02-26T13:33:54.831Z,42.79
2019-02-26T13:38:03.142Z,43.42
2019-02-26T13:42:14.066Z,43.81
2019-02-26T13:46:20.735Z,44.19
2019-02-26T13:50:29.410Z,44.99
2019-02-26T13:54:37.449Z,45.01
2019-02-26T13:58:45.561Z,44.98
2019-02-26T14:02:53.878Z,45.15
2019-02-26T14:07:01.485Z,44.72
2019-02-26T14:11:09.522Z,45.37
2019-02-26T14:15:19.896Z,45.29
2019-02-26T14:19:27.677Z,45.52
2019-02-26T14:23:35.936Z,45.29
2019-02-26T14:27:44.015Z,45.44
2019-02-26T14:31:51.845Z,45.68
2019-02-26T14:36:00.147Z,46.26
2019-02-26T14:40:09.870Z,46.08
2019-02-26T14:44:17.921Z,46.02
2019-02-26T14:48:26.037Z,45.99
2019-02-26T14:52:33.758Z,46.27
2019-02-26T14:56:41.493Z,45.96
2019-02-26T15:00:57.344Z,46.57
2019-02-26T15:04:59.424Z,46.43
2019-02-26T15:09:08.651Z,46.47
2019-02-26T15:13:17.819Z,46.97
2019-02-26T15:17:25.496Z,47.41
2019-02-26T15:21:33.800Z,47.77
2019-02-26T15:25:44.080Z,47.82
2019-02-26T15:29:52.323Z,48.18
2019-02-26T15:34:00.711Z,48.28
2019-02-26T15:38:08.958Z,48.70
2019-02-26T15:42:19.122Z,48.51
2019-02-26T15:46:28.570Z,48.88
2019-02-26T15:50:37.750Z,49.66
2019-02-26T15:54:46.175Z,49.43
2019-02-26T15:58:54.379Z,49.75
2019-02-26T16:03:02.003Z,49.70
2019-02-26T16:07:10.187Z,50.14
2019-02-26T16:11:18.420Z,50.11
2019-02-26T16:15:26.322Z,50.31
2019-02-26T16:19:34.029Z,50.69
2019-02-26T16:23:42.158Z,50.49
2019-02-26T16:27:51.683Z,50.67
2019-02-26T16:31:59.702Z,51.03
2019-02-26T16:36:07.625Z,51.37
2019-02-26T16:40:15.756Z,51.81
2019-02-26T16:44:24.799Z,52.51
2019-02-26T16:48:33.030Z,52.31
2019-02-26T16:52:41.349Z,52.84
2019-02-26T16:56:50.243Z,52.28
2019-02-26T17:00:57.833Z,52.44
2019-02-26T17:05:06.185Z,52.29
2019-02-26T17:09:13.909Z,52.63
2019-02-26T17:13:22.428Z,52.77
2019-02-26T17:17:31.074Z,53.16
2019-02-26T17:21:38.864Z,52.94
2019-02-26T17:25:47.113Z,53.19
2019-02-26T17:29:55.044Z,53.41
2019-02-26T17:34:02.714Z,53.67
2019-02-26T17:38:12.360Z,53.82
2019-02-26T17:42:20.307Z,53.73
2019-02-26T17:46:28.683Z,53.62
2019-02-26T17:50:37.759Z,54.25
2019-02-26T17:54:45.452Z,54.78
2019-02-26T17:58:53.701Z,54.20
2019-02-26T18:03:07.352Z,53.73
2019-02-26T18:07:15.105Z,53.88
2019-02-26T18:11:23.611Z,53.75
2019-02-26T18:15:31.997Z,53.83
2019-02-26T18:19:40.861Z,53.89
2019-02-26T18:23:48.947Z,53.94
2019-02-26T18:27:57.665Z,54.34
2019-02-26T18:32:06.423Z,54.63
2019-02-26T18:36:16.024Z,54.77
2019-02-26T18:40:28.058Z,54.86
2019-02-26T18:44:35.637Z,55.35
2019-02-26T18:48:43.472Z,55.56
2019-02-26T18:52:52.282Z,55.82
2019-02-26T18:57:01.296Z,56.07
2019-02-26T19:01:09.626Z,56.46
2019-02-26T19:05:20.628Z,56.59
2019-02-26T19:09:27.856Z,56.80
2019-02-26T19:13:36.304Z,56.97
2019-02-26T19:17:45.953Z,57.20
2019-02-26T19:21:54.701Z,57.32
2019-02-26T19:26:02.627Z,57.38
2019-02-26T19:30:12.812Z,57.34
2019-02-26T19:34:21.135Z,57.49
2019-02-26T19:38:28.921Z,57.47
2019-02-26T19:42:37.333Z,57.63
2019-02-26T19:46:49.389Z,57.87
2019-02-26T19:50:55.537Z,58.01
2019-02-26T19:55:05.853Z,58.03
2019-02-26T19:59:15.412Z,58.08
2019-02-26T20:03:23.237Z,58.02
2019-02-26T20:07:32.524Z,57.80
2019-02-26T20:11:40.897Z,57.80
2019-02-26T20:15:49.617Z,57.45
2019-02-26T20:19:58.150Z,56.87
2019-02-26T20:24:05.710Z,56.25
2019-02-26T20:28:13.266Z,54.95
2019-02-26T20:32:21.410Z,54.23
2019-02-26T20:36:29.240Z,55.92
2019-02-26T20:40:37.490Z,56.08
2019-02-26T20:44:45.429Z,55.95
2019-02-26T20:48:53.739Z,55.90
2019-02-26T20:53:05.656Z,56.02
2019-02-26T20:57:11.371Z,56.46
2019-02-26T21:01:19.625Z,56.25
2019-02-26T21:05:27.374Z,56.25
2019-02-26T21:09:37.849Z,56.53
2019-02-26T21:13:45.319Z,56.35
2019-02-26T21:17:53.022Z,56.27
2019-02-26T21:22:01.150Z,56.87
2019-02-26T21:26:09.256Z,57.21
2019-02-26T21:30:17.891Z,58.83
2019-02-26T21:34:26.104Z,60.42
2019-02-26T21:38:38.609Z,62.40
2019-02-26T21:42:44.105Z,63.52
2019-02-26T21:46:53.738Z,63.90
2019-02-26T21:51:02.051Z,64.61
2019-02-26T21:55:10.145Z,65.00
2019-02-26T21:59:18.378Z,66.17
2019-02-26T22:03:26.519Z,66.44
2019-02-26T22:07:34.209Z,67.12
2019-02-26T22:11:42.424Z,67.13
2019-02-26T22:15:50.745Z,68.13
2019-02-26T22:19:58.457Z,67.51
2019-02-26T22:24:07.002Z,68.66
2019-02-26T22:28:15.815Z,69.12
2019-02-26T22:32:23.520Z,69.74
2019-02-26T22:36:33.310Z,70.06
2019-02-26T22:40:41.295Z,70.21
2019-02-26T22:44:49.002Z,71.02
2019-02-26T22:48:57.168Z,70.79
2019-02-26T22:53:05.080Z,71.78
2019-02-26T22:57:13.249Z,71.15
2019-02-26T23:01:36.383Z,71.03
2019-02-26T23:05:40.858Z,70.77
2019-02-26T23:09:52.086Z,70.96
2019-02-26T23:14:02.692Z,71.24
2019-02-26T23:18:09.908Z,70.91
2019-02-26T23:22:18.137Z,70.94
2019-02-26T23:26:26.467Z,70.94
2019-02-26T23:30:35.174Z,70.55
2019-02-26T23:34:43.623Z,70.98
2019-02-26T23:38:51.328Z,70.56
2019-02-26T23:42:59.034Z,70.39
2019-02-26T23:47:10.557Z,70.61
2019-02-26T23:51:21.030Z,70.35
2019-02-26T23:55:29.530Z,70.35
2019-02-26T23:59:37.608Z,70.90
